Time,TemperatureF,DewpointF,PressureIn,WindDirection,WindDirectionDegrees,WindSpeedMPH,WindSpeedGustMPH,Humidity,HourlyPrecipIn,Conditions,Clouds,dailyrainin,SoftwareType,DateUTC
2013-02-08 00:00:00,30.1,21.9,30.34,ENE,70,1.0,5.0,71,0.00,,---,0.00,VWS V14.00,2013-02-08 05:00:00,
2013-02-08 00:02:00,30.1,21.9,30.34,ENE,68,2.0,2.0,71,0.00,,---,0.00,VWS V14.00,2013-02-08 05:02:00,
2013-02-08 00:07:00,30.3,22.4,30.34,NE,44,0.0,5.0,72,0.00,,---,0.00,VWS V14.00,2013-02-08 05:07:00,
2013-02-08 00:12:00,30.5,22.6,30.34,NE,45,2.0,5.0,72,0.00,,---,0.00,VWS V14.00,2013-02-08 05:12:00,
2013-02-08 00:17:00,30.5,22.6,30.34,NE,55,0.0,5.0,72,0.00,,---,0.00,VWS V14.00,2013-02-08 05:17:00,
2013-02-08 00:22:00,30.6,22.7,30.33,NE,50,1.0,5.0,72,0.00,,---,0.00,VWS V14.00,2013-02-08 05:22:00,
2013-02-08 00:27:00,30.7,22.8,30.33,NE,50,0.0,0.0,72,0.00,,---,0.00,VWS V14.00,2013-02-08 05:27:00,
2013-02-08 00:32:00,30.7,22.8,30.33,NE,50,1.0,2.0,72,0.00,,---,0.00,VWS V14.00,2013-02-08 05:32:00,
2013-02-08 00:37:00,30.7,22.8,30.33,NE,50,1.0,3.0,72,0.00,,---,0.00,VWS V14.00,2013-02-08 05:37:00,
2013-02-08 00:42:00,30.8,22.9,30.32,NE,50,2.0,4.0,72,0.00,,---,0.00,VWS V14.00,2013-02-08 05:42:00,
2013-02-08 00:47:00,30.9,23.3,30.32,NE,50,0.0,4.0,73,0.00,,---,0.00,VWS V14.00,2013-02-08 05:47:00,
2013-02-08 00:52:00,30.9,23.3,30.32,NE,50,0.0,4.0,73,0.00,,---,0.00,VWS V14.00,2013-02-08 05:52:00,
2013-02-08 00:57:00,31.0,23.4,30.31,NE,50,2.0,2.0,73,0.00,,---,0.00,VWS V14.00,2013-02-08 05:57:00,
2013-02-08 01:02:00,31.2,23.6,30.31,NE,55,2.0,2.0,73,0.00,,---,0.00,VWS V14.00,2013-02-08 06:02:00,
2013-02-08 01:07:00,31.3,24.0,30.31,ENE,63,0.0,3.0,74,0.00,,---,0.00,VWS V14.00,2013-02-08 06:07:00,
2013-02-08 01:12:00,31.4,24.1,30.31,ENE,63,1.0,3.0,74,0.00,,---,0.00,VWS V14.00,2013-02-08 06:12:00,
2013-02-08 01:17:00,31.6,24.6,30.31,East,95,0.0,7.0,75,0.00,,---,0.00,VWS V14.00,2013-02-08 06:17:00,
2013-02-08 01:22:00,31.9,24.9,30.31,East,96,5.0,7.0,75,0.00,,---,0.00,VWS V14.00,2013-02-08 06:22:00,
2013-02-08 01:27:00,32.2,25.2,30.31,NE,51,4.0,4.0,75,0.00,,---,0.00,VWS V14.00,2013-02-08 06:27:00,
2013-02-08 01:32:00,32.5,25.5,30.30,SE,126,6.0,10.0,75,0.00,,---,0.00,VWS V14.00,2013-02-08 06:32:00,
2013-02-08 01:37:00,32.8,25.4,30.30,ESE,117,2.0,14.0,74,0.00,,---,0.00,VWS V14.00,2013-02-08 06:37:00,
2013-02-08 01:42:00,33.0,25.6,30.30,SSE,147,5.0,14.0,74,0.00,,---,0.00,VWS V14.00,2013-02-08 06:42:00,
2013-02-08 01:47:00,33.2,25.8,30.30,SE,136,6.0,16.0,74,0.00,,---,0.00,VWS V14.00,2013-02-08 06:47:00,
2013-02-08 01:52:00,33.3,25.6,30.30,East,95,5.0,16.0,73,0.00,,---,0.00,VWS V14.00,2013-02-08 06:52:00,
2013-02-08 01:57:00,33.3,25.6,30.29,NE,46,7.0,16.0,73,0.00,,---,0.00,VWS V14.00,2013-02-08 06:57:00,
2013-02-08 02:02:00,33.2,25.5,30.29,ESE,103,9.0,16.0,73,0.00,,---,0.00,VWS V14.00,2013-02-08 07:02:00,
2013-02-08 02:07:00,33.2,25.5,30.28,ESE,103,1.0,16.0,73,0.00,,---,0.00,VWS V14.00,2013-02-08 07:07:00,
2013-02-08 02:13:00,33.2,25.5,30.29,ESE,123,5.0,16.0,73,0.00,,---,0.00,VWS V14.00,2013-02-08 07:13:00,
2013-02-08 02:18:00,33.1,25.4,30.28,East,99,0.0,16.0,73,0.00,,---,0.00,VWS V14.00,2013-02-08 07:18:00,
2013-02-08 02:23:00,33.1,25.4,30.28,East,83,4.0,16.0,73,0.00,,---,0.00,VWS V14.00,2013-02-08 07:23:00,
2013-02-08 02:28:00,33.0,25.3,30.28,SSE,147,9.0,16.0,73,0.00,,---,0.00,VWS V14.00,2013-02-08 07:28:00,
2013-02-08 02:33:00,33.0,25.3,30.28,East,100,4.0,16.0,73,0.00,,---,0.00,VWS V14.00,2013-02-08 07:33:00,
2013-02-08 02:38:00,33.0,25.3,30.27,ENE,75,4.0,16.0,73,0.00,,---,0.00,VWS V14.00,2013-02-08 07:38:00,
2013-02-08 02:43:00,32.9,24.9,30.27,SE,127,7.0,16.0,72,0.00,,---,0.00,VWS V14.00,2013-02-08 07:43:00,
2013-02-08 02:48:00,32.9,24.9,30.27,ESE,123,12.0,16.0,72,0.00,,---,0.00,VWS V14.00,2013-02-08 07:48:00,
2013-02-08 02:53:00,32.8,24.8,30.26,ENE,74,4.0,16.0,72,0.00,,---,0.00,VWS V14.00,2013-02-08 07:53:00,
2013-02-08 02:58:00,32.8,24.8,30.26,ESE,111,5.0,17.0,72,0.00,,---,0.00,VWS V14.00,2013-02-08 07:58:00,
2013-02-08 03:02:00,32.8,24.8,30.26,SSE,158,7.0,17.0,72,0.00,,---,0.00,VWS V14.00,2013-02-08 08:02:00,
2013-02-08 03:08:00,32.8,24.8,30.26,East,95,15.0,17.0,72,0.00,,---,0.00,VWS V14.00,2013-02-08 08:08:00,
2013-02-08 03:13:00,32.8,25.1,30.25,East,93,4.0,17.0,73,0.00,,---,0.00,VWS V14.00,2013-02-08 08:13:00,
2013-02-08 03:18:00,32.8,25.1,30.25,SSE,153,5.0,17.0,73,0.00,,---,0.00,VWS V14.00,2013-02-08 08:18:00,
2013-02-08 03:23:00,32.7,25.0,30.25,ENE,57,3.0,17.0,73,0.00,,---,0.00,VWS V14.00,2013-02-08 08:23:00,
2013-02-08 03:28:00,32.7,25.0,30.25,ESE,115,5.0,5.0,73,0.00,,---,0.00,VWS V14.00,2013-02-08 08:28:00,
2013-02-08 03:33:00,32.6,24.9,30.24,ENE,59,5.0,16.0,73,0.00,,---,0.00,VWS V14.00,2013-02-08 08:33:00,
2013-02-08 03:38:00,32.6,24.9,30.24,East,81,11.0,16.0,73,0.00,,---,0.00,VWS V14.00,2013-02-08 08:38:00,
2013-02-08 03:43:00,32.6,24.9,30.24,ESE,111,5.0,16.0,73,0.00,,---,0.00,VWS V14.00,2013-02-08 08:43:00,
2013-02-08 03:48:00,32.6,24.9,30.24,SE,132,6.0,16.0,73,0.00,,---,0.00,VWS V14.00,2013-02-08 08:48:00,
2013-02-08 03:53:00,32.6,24.9,30.24,SE,132,4.0,16.0,73,0.00,,---,0.00,VWS V14.00,2013-02-08 08:53:00,
2013-02-08 03:58:00,32.6,24.9,30.23,ESE,105,1.0,6.0,73,0.00,,---,0.00,VWS V14.00,2013-02-08 08:58:00,
2013-02-08 04:03:00,32.7,25.0,30.23,ESE,114,5.0,13.0,73,0.00,,---,0.00,VWS V14.00,2013-02-08 09:03:00,
2013-02-08 04:08:00,32.7,25.0,30.23,NE,46,0.0,13.0,73,0.00,,---,0.00,VWS V14.00,2013-02-08 09:08:00,
2013-02-08 04:13:00,32.7,25.3,30.22,ESE,123,2.0,13.0,74,0.00,,---,0.00,VWS V14.00,2013-02-08 09:13:00,
2013-02-08 04:18:00,32.8,25.4,30.22,SE,126,4.0,13.0,74,0.00,,---,0.00,VWS V14.00,2013-02-08 09:18:00,
2013-02-08 04:23:00,32.8,25.4,30.22,East,80,0.0,13.0,74,0.00,,---,0.00,VWS V14.00,2013-02-08 09:23:00,
2013-02-08 04:28:00,32.8,25.8,30.22,East,92,0.0,4.0,75,0.00,,---,0.00,VWS V14.00,2013-02-08 09:28:00,
2013-02-08 04:33:00,32.9,25.9,30.22,ESE,102,4.0,13.0,75,0.00,,---,0.00,VWS V14.00,2013-02-08 09:33:00,
2013-02-08 04:38:00,33.0,26.3,30.22,ENE,67,1.0,13.0,76,0.00,,---,0.00,VWS V14.00,2013-02-08 09:38:00,
2013-02-08 04:43:00,33.1,26.4,30.22,ESE,116,2.0,13.0,76,0.00,,---,0.00,VWS V14.00,2013-02-08 09:43:00,
2013-02-08 04:48:00,33.2,26.5,30.22,East,98,4.0,13.0,76,0.00,,---,0.00,VWS V14.00,2013-02-08 09:48:00,
2013-02-08 04:53:00,33.2,26.8,30.21,ENE,71,2.0,13.0,77,0.00,,---,0.00,VWS V14.00,2013-02-08 09:53:00,
2013-02-08 04:58:00,33.3,26.6,30.21,ESE,106,2.0,6.0,76,0.00,,---,0.00,VWS V14.00,2013-02-08 09:58:00,
2013-02-08 05:03:00,33.3,26.6,30.21,ENE,67,4.0,6.0,76,0.00,,---,0.00,VWS V14.00,2013-02-08 10:03:00,
2013-02-08 05:08:00,33.2,26.5,30.21,NE,49,0.0,9.0,76,0.00,,---,0.00,VWS V14.00,2013-02-08 10:08:00,
2013-02-08 05:13:00,33.2,26.5,30.21,ESE,105,2.0,9.0,76,0.00,,---,0.00,VWS V14.00,2013-02-08 10:13:00,
2013-02-08 05:18:00,33.1,26.4,30.21,SE,127,5.0,9.0,76,0.00,,---,0.00,VWS V14.00,2013-02-08 10:18:00,
2013-02-08 05:23:00,33.0,26.3,30.20,East,85,1.0,9.0,76,0.00,,---,0.00,VWS V14.00,2013-02-08 10:23:00,
2013-02-08 05:28:00,32.9,26.2,30.20,SE,134,5.0,7.0,76,0.00,,---,0.00,VWS V14.00,2013-02-08 10:28:00,
2013-02-08 05:33:00,32.8,26.1,30.20,ESE,110,7.0,14.0,76,0.00,,---,0.00,VWS V14.00,2013-02-08 10:33:00,
2013-02-08 05:38:00,32.7,26.0,30.19,ESE,111,4.0,14.0,76,0.00,,---,0.00,VWS V14.00,2013-02-08 10:38:00,
2013-02-08 05:43:00,32.7,26.0,30.19,NE,40,0.0,14.0,76,0.00,,---,0.00,VWS V14.00,2013-02-08 10:43:00,
2013-02-08 05:48:00,32.6,25.9,30.19,NE,50,4.0,14.0,76,0.00,,---,0.00,VWS V14.00,2013-02-08 10:48:00,
2013-02-08 05:53:00,32.5,25.8,30.18,ENE,73,2.0,14.0,76,0.00,,---,0.00,VWS V14.00,2013-02-08 10:53:00,
2013-02-08 05:58:00,32.5,25.8,30.18,East,99,1.0,3.0,76,0.00,,---,0.00,VWS V14.00,2013-02-08 10:58:00,
2013-02-08 06:03:00,32.4,25.7,30.18,ESE,113,4.0,6.0,76,0.00,,---,0.00,VWS V14.00,2013-02-08 11:03:00,
2013-02-08 06:08:00,32.4,25.7,30.18,East,85,2.0,12.0,76,0.00,,---,0.00,VWS V14.00,2013-02-08 11:08:00,
2013-02-08 06:13:00,32.3,25.9,30.17,NE,46,0.0,12.0,77,0.00,,---,0.00,VWS V14.00,2013-02-08 11:13:00,
2013-02-08 06:18:00,32.3,25.9,30.17,ENE,78,5.0,12.0,77,0.00,,---,0.00,VWS V14.00,2013-02-08 11:18:00,
2013-02-08 06:23:00,32.4,26.0,30.16,ESE,112,1.0,12.0,77,0.00,,---,0.00,VWS V14.00,2013-02-08 11:23:00,
2013-02-08 06:29:00,32.4,26.0,30.16,East,101,0.0,6.0,77,0.00,,---,0.00,VWS V14.00,2013-02-08 11:29:00,
2013-02-08 06:34:00,32.4,26.0,30.16,ENE,76,2.0,11.0,77,0.00,,---,0.00,VWS V14.00,2013-02-08 11:34:00,
2013-02-08 06:39:00,32.4,26.3,30.16,ENE,68,3.0,11.0,78,0.00,,---,0.00,VWS V14.00,2013-02-08 11:39:00,
2013-02-08 06:44:00,32.4,26.3,30.15,SE,136,0.0,11.0,78,0.00,,---,0.00,VWS V14.00,2013-02-08 11:44:00,
2013-02-08 06:49:00,32.4,26.3,30.15,SE,130,4.0,11.0,78,0.00,,---,0.00,VWS V14.00,2013-02-08 11:49:00,
2013-02-08 06:54:00,32.4,26.3,30.15,East,101,0.0,11.0,78,0.00,,---,0.00,VWS V14.00,2013-02-08 11:54:00,
2013-02-08 06:59:00,32.4,26.6,30.14,East,101,1.0,7.0,79,0.00,,---,0.00,VWS V14.00,2013-02-08 11:59:00,
2013-02-08 07:04:00,32.4,26.9,30.15,ENE,68,1.0,7.0,80,0.00,,---,0.00,VWS V14.00,2013-02-08 12:04:00,
2013-02-08 07:09:00,32.5,27.0,30.14,East,84,5.0,8.0,80,0.00,,---,0.00,VWS V14.00,2013-02-08 12:09:00,
2013-02-08 07:14:00,32.4,27.2,30.14,ESE,119,2.0,8.0,81,0.00,,---,0.00,VWS V14.00,2013-02-08 12:14:00,
2013-02-08 07:19:00,32.4,27.2,30.14,ESE,107,1.0,12.0,81,0.00,,---,0.00,VWS V14.00,2013-02-08 12:19:00,
2013-02-08 07:24:00,32.4,27.5,30.14,ESE,107,2.0,12.0,82,0.00,,---,0.00,VWS V14.00,2013-02-08 12:24:00,
2013-02-08 07:29:00,32.4,27.5,30.14,ESE,121,0.0,8.0,82,0.00,,---,0.00,VWS V14.00,2013-02-08 12:29:00,
2013-02-08 07:34:00,32.5,27.9,30.14,ENE,77,1.0,8.0,83,0.00,,---,0.00,VWS V14.00,2013-02-08 12:34:00,
2013-02-08 07:39:00,32.4,27.8,30.14,East,82,1.0,8.0,83,0.00,,---,0.00,VWS V14.00,2013-02-08 12:39:00,
2013-02-08 07:44:00,32.5,28.2,30.14,ESE,110,0.0,8.0,84,0.00,,---,0.00,VWS V14.00,2013-02-08 12:44:00,
2013-02-08 07:49:00,32.5,28.5,30.14,East,92,5.0,8.0,85,0.00,,---,0.00,VWS V14.00,2013-02-08 12:49:00,
2013-02-08 07:54:00,32.5,28.8,30.13,East,91,0.0,10.0,86,0.00,,---,0.00,VWS V14.00,2013-02-08 12:54:00,
2013-02-08 07:59:00,32.5,29.1,30.13,ENE,73,0.0,5.0,87,0.00,,---,0.00,VWS V14.00,2013-02-08 12:59:00,
2013-02-08 08:04:00,32.4,29.0,30.13,ESE,105,0.0,6.0,87,0.00,,---,0.00,VWS V14.00,2013-02-08 13:04:00,
2013-02-08 08:09:00,32.4,29.2,30.13,ESE,104,2.0,6.0,88,0.00,,---,0.00,VWS V14.00,2013-02-08 13:09:00,
2013-02-08 08:14:00,32.5,29.4,30.12,East,93,4.0,6.0,88,0.00,,---,0.00,VWS V14.00,2013-02-08 13:14:00,
2013-02-08 08:19:00,32.5,29.4,30.12,ENE,78,7.0,10.0,88,0.00,,---,0.00,VWS V14.00,2013-02-08 13:19:00,
2013-02-08 08:24:00,32.5,29.6,30.12,ESE,115,6.0,10.0,89,0.00,,---,0.00,VWS V14.00,2013-02-08 13:24:00,
2013-02-08 08:29:00,32.6,29.7,30.12,NE,51,0.0,5.0,89,0.00,,---,0.00,VWS V14.00,2013-02-08 13:29:00,
2013-02-08 08:34:00,32.7,29.8,30.12,NE,47,1.0,5.0,89,0.00,,---,0.00,VWS V14.00,2013-02-08 13:34:00,
2013-02-08 08:39:00,32.8,29.9,30.11,East,90,1.0,7.0,89,0.00,,---,0.00,VWS V14.00,2013-02-08 13:39:00,
2013-02-08 08:44:00,32.8,29.9,30.11,ENE,65,6.0,7.0,89,0.00,,---,0.00,VWS V14.00,2013-02-08 13:44:00,
2013-02-08 08:49:00,32.9,30.0,30.11,ESE,111,5.0,11.0,89,0.00,,---,0.00,VWS V14.00,2013-02-08 13:49:00,
2013-02-08 08:54:00,33.0,30.1,30.10,ESE,120,2.0,11.0,89,0.00,,---,0.00,VWS V14.00,2013-02-08 13:54:00,
2013-02-08 08:59:00,33.1,30.5,30.10,NE,40,1.0,6.0,90,0.00,,---,0.00,VWS V14.00,2013-02-08 13:59:00,
2013-02-08 09:04:00,33.2,30.6,30.10,East,88,4.0,9.0,90,0.00,,---,0.00,VWS V14.00,2013-02-08 14:04:00,
2013-02-08 09:09:00,33.3,30.7,30.09,East,100,5.0,15.0,90,0.00,,---,0.00,VWS V14.00,2013-02-08 14:09:00,
2013-02-08 09:14:00,33.4,30.5,30.09,ENE,61,3.0,15.0,89,0.00,,---,0.00,VWS V14.00,2013-02-08 14:14:00,
2013-02-08 09:19:00,33.5,30.6,30.08,ESE,105,4.0,15.0,89,0.00,,---,0.00,VWS V14.00,2013-02-08 14:19:00,
2013-02-08 09:24:00,33.5,30.6,30.08,East,95,5.0,15.0,89,0.00,,---,0.00,VWS V14.00,2013-02-08 14:24:00,
2013-02-08 09:29:00,33.5,30.6,30.08,East,97,4.0,12.0,89,0.00,,---,0.00,VWS V14.00,2013-02-08 14:29:00,
2013-02-08 09:34:00,33.6,30.7,30.07,ESE,106,6.0,23.0,89,0.00,,---,0.00,VWS V14.00,2013-02-08 14:34:00,
2013-02-08 09:39:00,33.6,30.7,30.07,ESE,107,5.0,23.0,89,0.00,,---,0.00,VWS V14.00,2013-02-08 14:39:00,
2013-02-08 09:44:00,33.6,30.7,30.06,ESE,103,4.0,23.0,89,0.00,,---,0.00,VWS V14.00,2013-02-08 14:44:00,
2013-02-08 09:49:00,33.6,30.7,30.06,ENE,77,1.0,23.0,89,0.00,,---,0.00,VWS V14.00,2013-02-08 14:49:00,
2013-02-08 09:54:00,33.7,30.8,30.06,ESE,123,2.0,23.0,89,0.00,,---,0.00,VWS V14.00,2013-02-08 14:54:00,
2013-02-08 10:00:00,33.6,30.7,30.06,ESE,111,8.0,12.0,89,0.00,,---,0.00,VWS V14.00,2013-02-08 15:00:00,
2013-02-08 10:05:00,33.6,30.7,30.05,ENE,76,8.0,12.0,89,0.00,,---,0.00,VWS V14.00,2013-02-08 15:05:00,
2013-02-08 10:10:00,33.7,30.8,30.04,East,95,4.0,14.0,89,0.00,,---,0.00,VWS V14.00,2013-02-08 15:10:00,
2013-02-08 10:15:00,33.7,31.1,30.04,East,85,0.0,14.0,90,0.00,,---,0.00,VWS V14.00,2013-02-08 15:15:00,
2013-02-08 10:20:00,33.7,30.8,30.04,East,80,4.0,14.0,89,0.00,,---,0.00,VWS V14.00,2013-02-08 15:20:00,
2013-02-08 10:25:00,33.6,30.7,30.04,ENE,76,6.0,14.0,89,0.00,,---,0.00,VWS V14.00,2013-02-08 15:25:00,
2013-02-08 10:30:00,33.6,30.7,30.03,ESE,123,13.0,13.0,89,0.00,,---,0.00,VWS V14.00,2013-02-08 15:30:00,
2013-02-08 10:35:00,33.6,30.7,30.03,East,82,4.0,13.0,89,0.00,,---,0.00,VWS V14.00,2013-02-08 15:35:00,
2013-02-08 10:40:00,33.6,30.7,30.02,ESE,111,6.0,13.0,89,0.00,,---,0.00,VWS V14.00,2013-02-08 15:40:00,
2013-02-08 10:45:00,33.5,30.6,30.02,ESE,103,2.0,13.0,89,0.00,,---,0.00,VWS V14.00,2013-02-08 15:45:00,
2013-02-08 10:50:00,33.5,30.6,30.01,East,82,1.0,13.0,89,0.00,,---,0.00,VWS V14.00,2013-02-08 15:50:00,
2013-02-08 10:55:00,33.4,30.8,30.01,ESE,102,5.0,13.0,90,0.00,,---,0.00,VWS V14.00,2013-02-08 15:55:00,
2013-02-08 11:00:00,33.4,30.8,30.01,SSE,157,6.0,17.0,90,0.00,,---,0.00,VWS V14.00,2013-02-08 16:00:00,
2013-02-08 11:05:00,33.4,30.8,30.00,East,97,5.0,17.0,90,0.00,,---,0.00,VWS V14.00,2013-02-08 16:05:00,
2013-02-08 11:10:00,33.3,30.7,30.00,ENE,71,3.0,17.0,90,0.00,,---,0.00,VWS V14.00,2013-02-08 16:10:00,
2013-02-08 11:15:00,33.3,30.7,30.00,ENE,78,3.0,17.0,90,0.00,,---,0.00,VWS V14.00,2013-02-08 16:15:00,
2013-02-08 11:20:00,33.3,30.7,29.99,ESE,104,2.0,17.0,90,0.00,,---,0.00,VWS V14.00,2013-02-08 16:20:00,
2013-02-08 11:25:00,33.2,30.6,29.98,East,87,2.0,17.0,90,0.00,,---,0.00,VWS V14.00,2013-02-08 16:25:00,
2013-02-08 11:30:00,33.2,30.6,29.98,ENE,57,3.0,9.0,90,0.00,,---,0.00,VWS V14.00,2013-02-08 16:30:00,
2013-02-08 11:35:00,33.2,30.6,29.97,ENE,74,5.0,10.0,90,0.00,,---,0.00,VWS V14.00,2013-02-08 16:35:00,
2013-02-08 11:40:00,33.2,30.6,29.97,NE,38,5.0,12.0,90,0.00,,---,0.00,VWS V14.00,2013-02-08 16:40:00,
2013-02-08 11:45:00,33.2,30.6,29.97,ESE,119,2.0,13.0,90,0.00,,---,0.00,VWS V14.00,2013-02-08 16:45:00,
2013-02-08 11:50:00,33.2,30.6,29.96,NE,34,4.0,15.0,90,0.00,,---,0.00,VWS V14.00,2013-02-08 16:50:00,
2013-02-08 11:55:00,33.2,30.6,29.95,SE,128,5.0,15.0,90,0.00,,---,0.00,VWS V14.00,2013-02-08 16:55:00,
2013-02-08 12:00:00,33.2,30.6,29.95,ENE,73,6.0,9.0,90,0.00,,---,0.00,VWS V14.00,2013-02-08 17:00:00,
2013-02-08 12:05:00,33.2,30.6,29.94,East,79,2.0,9.0,90,0.00,,---,0.00,VWS V14.00,2013-02-08 17:05:00,
2013-02-08 12:11:00,33.2,30.6,29.94,ESE,109,0.0,10.0,90,0.00,,---,0.00,VWS V14.00,2013-02-08 17:11:00,
2013-02-08 12:16:00,33.2,30.6,29.94,ESE,113,2.0,10.0,90,0.00,,---,0.00,VWS V14.00,2013-02-08 17:16:00,
2013-02-08 12:21:00,33.1,30.5,29.93,ENE,59,0.0,10.0,90,0.00,,---,0.00,VWS V14.00,2013-02-08 17:21:00,
2013-02-08 12:26:00,33.0,30.4,29.93,ENE,71,0.0,11.0,90,0.00,,---,0.00,VWS V14.00,2013-02-08 17:26:00,
2013-02-08 12:31:00,33.0,30.4,29.92,ENE,64,3.0,6.0,90,0.00,,---,0.00,VWS V14.00,2013-02-08 17:31:00,
2013-02-08 12:36:00,32.9,30.3,29.92,ENE,76,1.0,9.0,90,0.00,,---,0.00,VWS V14.00,2013-02-08 17:36:00,
2013-02-08 12:41:00,32.9,30.3,29.91,NE,55,7.0,9.0,90,0.00,,---,0.00,VWS V14.00,2013-02-08 17:41:00,
2013-02-08 12:46:00,32.9,30.3,29.91,East,92,2.0,9.0,90,0.00,,---,0.00,VWS V14.00,2013-02-08 17:46:00,
2013-02-08 12:51:00,32.9,30.3,29.90,ENE,63,1.0,9.0,90,0.00,,---,0.00,VWS V14.00,2013-02-08 17:51:00,
2013-02-08 12:56:00,32.8,30.2,29.89,ENE,63,2.0,9.0,90,0.00,,---,0.00,VWS V14.00,2013-02-08 17:56:00,
2013-02-08 13:01:00,32.8,30.2,29.89,ENE,62,2.0,8.0,90,0.00,,---,0.00,VWS V14.00,2013-02-08 18:01:00,
2013-02-08 13:06:00,32.7,30.1,29.88,NE,51,5.0,8.0,90,0.00,,---,0.00,VWS V14.00,2013-02-08 18:06:00,
2013-02-08 13:11:00,32.6,30.0,29.87,East,90,2.0,8.0,90,0.00,,---,0.00,VWS V14.00,2013-02-08 18:11:00,
2013-02-08 13:16:00,32.6,30.3,29.87,ENE,60,3.0,9.0,91,0.00,,---,0.00,VWS V14.00,2013-02-08 18:16:00,
2013-02-08 13:21:00,32.5,30.2,29.86,ENE,69,3.0,13.0,91,0.00,,---,0.00,VWS V14.00,2013-02-08 18:21:00,
2013-02-08 13:26:00,32.4,30.1,29.86,ENE,73,1.0,3.0,91,0.00,,---,0.00,VWS V14.00,2013-02-08 18:26:00,
2013-02-08 13:31:00,32.4,30.1,29.86,ESE,106,1.0,5.0,91,0.00,,---,0.00,VWS V14.00,2013-02-08 18:31:00,
2013-02-08 13:36:00,32.4,30.1,29.85,ENE,74,0.0,6.0,91,0.00,,---,0.00,VWS V14.00,2013-02-08 18:36:00,
2013-02-08 13:41:00,32.3,30.0,29.85,ENE,57,1.0,6.0,91,0.00,,---,0.00,VWS V14.00,2013-02-08 18:41:00,
2013-02-08 13:46:00,32.3,30.0,29.85,ENE,70,0.0,6.0,91,0.00,,---,0.00,VWS V14.00,2013-02-08 18:46:00,
2013-02-08 13:51:00,32.3,30.0,29.84,NE,34,3.0,7.0,91,0.00,,---,0.00,VWS V14.00,2013-02-08 18:51:00,
2013-02-08 13:56:00,32.3,30.0,29.83,East,81,2.0,2.0,91,0.00,,---,0.00,VWS V14.00,2013-02-08 18:56:00,
2013-02-08 14:02:00,32.3,30.0,29.83,ENE,63,3.0,7.0,91,0.00,,---,0.00,VWS V14.00,2013-02-08 19:02:00,
2013-02-08 14:07:00,32.3,30.0,29.83,ENE,59,0.0,7.0,91,0.00,,---,0.00,VWS V14.00,2013-02-08 19:07:00,
2013-02-08 14:12:00,32.3,30.0,29.82,East,80,1.0,7.0,91,0.00,,---,0.00,VWS V14.00,2013-02-08 19:12:00,
2013-02-08 14:17:00,32.3,30.0,29.81,NE,49,3.0,7.0,91,0.00,,---,0.00,VWS V14.00,2013-02-08 19:17:00,
2013-02-08 14:22:00,32.2,29.9,29.81,ENE,57,2.0,11.0,91,0.00,,---,0.00,VWS V14.00,2013-02-08 19:22:00,
2013-02-08 14:27:00,32.2,29.9,29.80,ESE,102,4.0,9.0,91,0.00,,---,0.00,VWS V14.00,2013-02-08 19:27:00,
2013-02-08 14:32:00,32.1,29.8,29.80,East,83,6.0,11.0,91,0.00,,---,0.00,VWS V14.00,2013-02-08 19:32:00,
2013-02-08 14:37:00,32.1,30.0,29.80,NE,48,0.0,12.0,92,0.00,,---,0.00,VWS V14.00,2013-02-08 19:37:00,
2013-02-08 14:42:00,32.1,30.0,29.78,NE,52,0.0,13.0,92,0.00,,---,0.01,VWS V14.00,2013-02-08 19:42:00,
2013-02-08 14:47:00,32.0,29.9,29.78,NE,45,1.0,13.0,92,0.00,,---,0.01,VWS V14.00,2013-02-08 19:47:00,
2013-02-08 14:52:00,32.0,29.9,29.78,East,82,6.0,13.0,92,0.00,,---,0.01,VWS V14.00,2013-02-08 19:52:00,
2013-02-08 14:57:00,32.0,29.9,29.77,NNE,30,5.0,5.0,92,0.00,,---,0.01,VWS V14.00,2013-02-08 19:57:00,
2013-02-08 15:02:00,32.0,29.9,29.77,East,80,4.0,15.0,92,0.00,,---,0.01,VWS V14.00,2013-02-08 20:02:00,
2013-02-08 15:07:00,31.9,29.8,29.77,NE,44,4.0,15.0,92,0.00,,---,0.01,VWS V14.00,2013-02-08 20:07:00,
2013-02-08 15:12:00,31.9,29.8,29.76,NE,53,3.0,15.0,92,0.00,,---,0.01,VWS V14.00,2013-02-08 20:12:00,
2013-02-08 15:17:00,31.9,29.8,29.76,East,89,1.0,15.0,92,0.00,,---,0.01,VWS V14.00,2013-02-08 20:17:00,
2013-02-08 15:22:00,31.9,29.8,29.76,NE,43,8.0,15.0,92,0.00,,---,0.01,VWS V14.00,2013-02-08 20:22:00,
2013-02-08 15:27:00,31.9,29.8,29.75,East,82,1.0,4.0,92,0.00,,---,0.01,VWS V14.00,2013-02-08 20:27:00,
2013-02-08 15:32:00,31.9,29.8,29.75,NE,38,3.0,8.0,92,0.00,,---,0.01,VWS V14.00,2013-02-08 20:32:00,
2013-02-08 15:37:00,31.9,29.8,29.75,NE,49,0.0,8.0,92,0.00,,---,0.01,VWS V14.00,2013-02-08 20:37:00,
2013-02-08 15:42:00,31.9,29.8,29.75,NNE,23,6.0,8.0,92,0.00,,---,0.01,VWS V14.00,2013-02-08 20:42:00,
2013-02-08 15:47:00,31.9,29.8,29.75,NE,51,4.0,12.0,92,0.00,,---,0.01,VWS V14.00,2013-02-08 20:47:00,
2013-02-08 15:52:00,31.9,29.8,29.75,NE,55,4.0,12.0,92,0.00,,---,0.01,VWS V14.00,2013-02-08 20:52:00,
2013-02-08 15:57:00,31.9,29.8,29.75,ENE,77,6.0,6.0,92,0.00,,---,0.01,VWS V14.00,2013-02-08 20:57:00,
2013-02-08 16:02:00,31.9,29.8,29.75,ENE,61,4.0,7.0,92,0.00,,---,0.02,VWS V14.00,2013-02-08 21:02:00,
2013-02-08 16:07:00,31.9,29.8,29.74,NE,44,0.0,11.0,92,0.00,,---,0.02,VWS V14.00,2013-02-08 21:07:00,
2013-02-08 16:12:00,31.9,29.8,29.74,ENE,57,2.0,11.0,92,0.00,,---,0.02,VWS V14.00,2013-02-08 21:12:00,
2013-02-08 16:17:00,31.9,29.8,29.74,ENE,71,2.0,12.0,92,0.00,,---,0.02,VWS V14.00,2013-02-08 21:17:00,
2013-02-08 16:22:00,31.9,29.8,29.74,East,81,6.0,12.0,92,0.00,,---,0.02,VWS V14.00,2013-02-08 21:22:00,
2013-02-08 16:27:00,32.0,29.9,29.74,East,90,4.0,7.0,92,0.00,,---,0.02,VWS V14.00,2013-02-08 21:27:00,
2013-02-08 16:32:00,32.0,29.9,29.73,ENE,66,2.0,10.0,92,0.00,,---,0.02,VWS V14.00,2013-02-08 21:32:00,
2013-02-08 16:37:00,32.0,29.9,29.73,NE,55,5.0,10.0,92,0.00,,---,0.02,VWS V14.00,2013-02-08 21:37:00,
2013-02-08 16:42:00,32.0,29.9,29.73,East,84,8.0,10.0,92,0.00,,---,0.02,VWS V14.00,2013-02-08 21:42:00,
2013-02-08 16:47:00,32.0,29.9,29.72,ENE,65,0.0,10.0,92,0.00,,---,0.02,VWS V14.00,2013-02-08 21:47:00,
2013-02-08 16:52:00,32.0,29.9,29.72,ENE,58,4.0,10.0,92,0.00,,---,0.02,VWS V14.00,2013-02-08 21:52:00,
2013-02-08 16:57:00,32.0,29.9,29.72,ENE,63,1.0,12.0,92,0.00,,---,0.02,VWS V14.00,2013-02-08 21:57:00,
2013-02-08 17:02:00,32.0,29.9,29.72,ENE,76,0.0,12.0,92,0.00,,---,0.02,VWS V14.00,2013-02-08 22:02:00,
2013-02-08 17:07:00,32.1,30.0,29.71,NE,40,0.0,12.0,92,0.00,,---,0.02,VWS V14.00,2013-02-08 22:07:00,
2013-02-08 17:12:00,32.0,29.9,29.71,ESE,115,1.0,12.0,92,0.00,,---,0.02,VWS V14.00,2013-02-08 22:12:00,
2013-02-08 17:18:00,32.0,29.9,29.71,NNE,19,5.0,12.0,92,0.00,,---,0.02,VWS V14.00,2013-02-08 22:18:00,
2013-02-08 17:23:00,32.0,29.9,29.71,ENE,71,12.0,17.0,92,0.00,,---,0.02,VWS V14.00,2013-02-08 22:23:00,
2013-02-08 17:28:00,32.0,29.9,29.71,NE,51,0.0,5.0,92,0.00,,---,0.02,VWS V14.00,2013-02-08 22:28:00,
2013-02-08 17:33:00,32.0,29.9,29.70,ENE,58,3.0,8.0,92,0.00,,---,0.02,VWS V14.00,2013-02-08 22:33:00,
2013-02-08 17:38:00,32.0,29.9,29.70,North,355,4.0,10.0,92,0.00,,---,0.02,VWS V14.00,2013-02-08 22:38:00,
2013-02-08 17:43:00,31.9,29.8,29.70,NE,47,3.0,11.0,92,0.00,,---,0.02,VWS V14.00,2013-02-08 22:43:00,
2013-02-08 17:48:00,31.9,29.8,29.70,North,355,5.0,11.0,92,0.00,,---,0.02,VWS V14.00,2013-02-08 22:48:00,
2013-02-08 17:53:00,31.9,29.8,29.69,NE,41,1.0,11.0,92,0.00,,---,0.02,VWS V14.00,2013-02-08 22:53:00,
2013-02-08 17:58:00,31.9,29.8,29.70,NE,34,8.0,8.0,92,0.00,,---,0.03,VWS V14.00,2013-02-08 22:58:00,
2013-02-08 18:03:00,31.9,29.8,29.69,NE,50,0.0,16.0,92,0.00,,---,0.03,VWS V14.00,2013-02-08 23:03:00,
2013-02-08 18:08:00,31.9,29.8,29.69,NE,46,7.0,16.0,92,0.00,,---,0.03,VWS V14.00,2013-02-08 23:08:00,
2013-02-08 18:13:00,31.8,29.8,29.69,NE,54,7.0,16.0,92,0.00,,---,0.03,VWS V14.00,2013-02-08 23:13:00,
2013-02-08 18:18:00,31.8,29.8,29.69,NNE,21,0.0,16.0,92,0.00,,---,0.03,VWS V14.00,2013-02-08 23:18:00,
2013-02-08 18:23:00,31.7,29.4,29.69,NE,49,4.0,16.0,91,0.00,,---,0.03,VWS V14.00,2013-02-08 23:23:00,
2013-02-08 18:28:00,31.7,29.4,29.68,East,96,2.0,14.0,91,0.00,,---,0.03,VWS V14.00,2013-02-08 23:28:00,
2013-02-08 18:33:00,31.6,29.3,29.69,SE,128,5.0,14.0,91,0.00,,---,0.03,VWS V14.00,2013-02-08 23:33:00,
2013-02-08 18:38:00,31.6,29.3,29.68,ESE,117,1.0,15.0,91,0.00,,---,0.03,VWS V14.00,2013-02-08 23:38:00,
2013-02-08 18:43:00,31.6,29.3,29.68,NNE,32,3.0,15.0,91,0.00,,---,0.03,VWS V14.00,2013-02-08 23:43:00,
2013-02-08 18:48:00,31.5,29.2,29.68,ESE,103,6.0,15.0,91,0.00,,---,0.03,VWS V14.00,2013-02-08 23:48:00,
2013-02-08 18:53:00,31.5,29.2,29.68,ENE,62,0.0,18.0,91,0.00,,---,0.03,VWS V14.00,2013-02-08 23:53:00,
2013-02-08 18:58:00,31.4,29.1,29.68,NNE,24,0.0,8.0,91,0.00,,---,0.03,VWS V14.00,2013-02-08 23:58:00,
2013-02-08 19:03:00,31.4,29.1,29.68,ESE,103,0.0,11.0,91,0.00,,---,0.03,VWS V14.00,2013-02-09 00:03:00,
2013-02-08 19:08:00,31.3,29.0,29.67,NE,55,1.0,11.0,91,0.00,,---,0.03,VWS V14.00,2013-02-09 00:08:00,
2013-02-08 19:13:00,31.2,28.9,29.67,NE,34,0.0,11.0,91,0.00,,---,0.03,VWS V14.00,2013-02-09 00:13:00,
2013-02-08 19:18:00,31.2,28.9,29.67,NE,55,0.0,13.0,91,0.00,,---,0.03,VWS V14.00,2013-02-09 00:18:00,
2013-02-08 19:23:00,31.1,28.8,29.67,ENE,71,0.0,13.0,91,0.00,,---,0.03,VWS V14.00,2013-02-09 00:23:00,
2013-02-08 19:28:00,31.0,28.7,29.67,WNW,299,1.0,9.0,91,0.00,,---,0.03,VWS V14.00,2013-02-09 00:28:00,
2013-02-08 19:33:00,30.8,28.5,29.67,NE,40,3.0,13.0,91,0.00,,---,0.03,VWS V14.00,2013-02-09 00:33:00,
2013-02-08 19:38:00,30.7,28.4,29.67,ENE,63,2.0,13.0,91,0.00,,---,0.03,VWS V14.00,2013-02-09 00:38:00,
2013-02-08 19:43:00,30.6,28.3,29.67,NE,50,4.0,13.0,91,0.00,,---,0.03,VWS V14.00,2013-02-09 00:43:00,
2013-02-08 19:48:00,30.5,28.2,29.67,NE,53,1.0,13.0,91,0.00,,---,0.03,VWS V14.00,2013-02-09 00:48:00,
2013-02-08 19:53:00,30.5,28.2,29.67,ENE,57,1.0,13.0,91,0.00,,---,0.03,VWS V14.00,2013-02-09 00:53:00,
2013-02-08 19:58:00,30.4,28.1,29.66,ENE,62,2.0,3.0,91,0.00,,---,0.03,VWS V14.00,2013-02-09 00:58:00,
2013-02-08 20:03:00,30.3,28.0,29.67,NE,44,7.0,7.0,91,0.00,,---,0.03,VWS V14.00,2013-02-09 01:03:00,
2013-02-08 20:08:00,30.3,28.0,29.67,NE,35,0.0,7.0,91,0.00,,---,0.03,VWS V14.00,2013-02-09 01:08:00,
2013-02-08 20:13:00,30.3,28.0,29.66,ENE,57,0.0,10.0,91,0.00,,---,0.03,VWS V14.00,2013-02-09 01:13:00,
2013-02-08 20:18:00,30.3,28.0,29.66,NE,45,3.0,10.0,91,0.00,,---,0.03,VWS V14.00,2013-02-09 01:18:00,
2013-02-08 20:23:00,30.3,28.0,29.66,NNE,15,0.0,10.0,91,0.00,,---,0.03,VWS V14.00,2013-02-09 01:23:00,
2013-02-08 20:28:00,30.3,28.0,29.66,NE,50,3.0,7.0,91,0.00,,---,0.03,VWS V14.00,2013-02-09 01:28:00,
2013-02-08 20:33:00,30.2,27.9,29.66,NE,48,3.0,8.0,91,0.00,,---,0.03,VWS V14.00,2013-02-09 01:33:00,
2013-02-08 20:38:00,30.2,27.9,29.66,NE,34,0.0,8.0,91,0.00,,---,0.03,VWS V14.00,2013-02-09 01:38:00,
2013-02-08 20:43:00,30.2,27.9,29.66,North,350,4.0,8.0,91,0.00,,---,0.03,VWS V14.00,2013-02-09 01:43:00,
2013-02-08 20:48:00,30.1,27.8,29.66,NNW,346,6.0,8.0,91,0.00,,---,0.03,VWS V14.00,2013-02-09 01:48:00,
2013-02-08 20:53:00,30.1,27.8,29.66,NE,46,0.0,8.0,91,0.00,,---,0.03,VWS V14.00,2013-02-09 01:53:00,
2013-02-08 20:58:00,29.9,27.6,29.66,NNW,332,2.0,4.0,91,0.00,,---,0.03,VWS V14.00,2013-02-09 01:58:00,
2013-02-08 21:03:00,29.8,27.5,29.66,NE,35,0.0,5.0,91,0.00,,---,0.03,VWS V14.00,2013-02-09 02:03:00,
2013-02-08 21:08:00,29.7,27.4,29.66,NNE,27,2.0,7.0,91,0.00,,---,0.03,VWS V14.00,2013-02-09 02:08:00,
2013-02-08 21:13:00,29.6,27.3,29.66,North,9,4.0,8.0,91,0.00,,---,0.03,VWS V14.00,2013-02-09 02:13:00,
2013-02-08 21:19:00,29.5,27.2,29.66,North,349,4.0,9.0,91,0.00,,---,0.03,VWS V14.00,2013-02-09 02:19:00,
2013-02-08 21:24:00,29.4,27.1,29.67,North,355,4.0,9.0,91,0.00,,---,0.03,VWS V14.00,2013-02-09 02:24:00,
2013-02-08 21:29:00,29.3,27.0,29.67,North,355,4.0,6.0,91,0.00,,---,0.03,VWS V14.00,2013-02-09 02:29:00,
2013-02-08 21:34:00,29.2,26.9,29.67,North,360,0.0,6.0,91,0.00,,---,0.03,VWS V14.00,2013-02-09 02:34:00,
2013-02-08 21:39:00,29.2,26.9,29.68,North,355,5.0,8.0,91,0.00,,---,0.03,VWS V14.00,2013-02-09 02:39:00,
2013-02-08 21:44:00,29.1,26.8,29.68,North,351,6.0,8.0,91,0.00,,---,0.03,VWS V14.00,2013-02-09 02:44:00,
2013-02-08 21:49:00,29.2,27.2,29.68,NNW,339,6.0,8.0,92,0.00,,---,0.03,VWS V14.00,2013-02-09 02:49:00,
2013-02-08 21:54:00,29.1,27.1,29.68,NNW,343,8.0,8.0,92,0.00,,---,0.03,VWS V14.00,2013-02-09 02:54:00,
2013-02-08 21:59:00,29.2,27.2,29.69,NNW,347,5.0,7.0,92,0.00,,---,0.03,VWS V14.00,2013-02-09 02:59:00,
2013-02-08 22:04:00,29.2,27.2,29.69,NNW,347,5.0,7.0,92,0.00,,---,0.03,VWS V14.00,2013-02-09 03:04:00,
2013-02-08 22:09:00,29.1,27.1,29.70,NNE,16,6.0,8.0,92,0.00,,---,0.03,VWS V14.00,2013-02-09 03:09:00,
2013-02-08 22:14:00,29.0,27.0,29.70,NNW,340,4.0,8.0,92,0.00,,---,0.03,VWS V14.00,2013-02-09 03:14:00,
2013-02-08 22:19:00,29.0,26.7,29.70,North,360,5.0,10.0,91,0.00,,---,0.03,VWS V14.00,2013-02-09 03:19:00,
2013-02-08 22:24:00,28.9,26.6,29.71,North,355,2.0,10.0,91,0.00,,---,0.03,VWS V14.00,2013-02-09 03:24:00,
2013-02-08 22:29:00,28.8,26.5,29.71,North,355,1.0,5.0,91,0.00,,---,0.03,VWS V14.00,2013-02-09 03:29:00,
2013-02-08 22:34:00,28.7,26.4,29.71,NNE,16,2.0,6.0,91,0.00,,---,0.03,VWS V14.00,2013-02-09 03:34:00,
2013-02-08 22:39:00,28.5,26.2,29.72,NNW,341,0.0,8.0,91,0.00,,---,0.03,VWS V14.00,2013-02-09 03:39:00,
2013-02-08 22:44:00,28.4,26.1,29.72,NNW,345,5.0,9.0,91,0.00,,---,0.03,VWS V14.00,2013-02-09 03:44:00,
2013-02-08 22:49:00,28.1,25.8,29.72,NNE,30,3.0,9.0,91,0.00,,---,0.03,VWS V14.00,2013-02-09 03:49:00,
2013-02-08 22:54:00,28.0,25.7,29.72,North,5,6.0,9.0,91,0.00,,---,0.03,VWS V14.00,2013-02-09 03:54:00,
2013-02-08 22:59:00,27.8,25.5,29.73,North,5,0.0,3.0,91,0.00,,---,0.03,VWS V14.00,2013-02-09 03:59:00,
2013-02-08 23:04:00,27.7,25.4,29.74,NNW,347,7.0,8.0,91,0.00,,---,0.03,VWS V14.00,2013-02-09 04:04:00,
2013-02-08 23:09:00,27.5,25.2,29.74,NNW,346,2.0,9.0,91,0.00,,---,0.03,VWS V14.00,2013-02-09 04:09:00,
2013-02-08 23:14:00,27.4,25.1,29.75,NNW,333,9.0,9.0,91,0.00,,---,0.03,VWS V14.00,2013-02-09 04:14:00,
2013-02-08 23:19:00,27.3,25.0,29.75,North,360,5.0,9.0,91,0.00,,---,0.03,VWS V14.00,2013-02-09 04:19:00,
2013-02-08 23:24:00,27.2,24.9,29.75,NNE,17,3.0,9.0,91,0.00,,---,0.03,VWS V14.00,2013-02-09 04:24:00,
2013-02-08 23:29:00,27.1,24.8,29.75,NE,37,3.0,7.0,91,0.00,,---,0.03,VWS V14.00,2013-02-09 04:29:00,
2013-02-08 23:34:00,27.1,25.1,29.75,North,355,5.0,7.0,92,0.00,,---,0.03,VWS V14.00,2013-02-09 04:34:00,
2013-02-08 23:39:00,27.0,24.7,29.75,North,355,6.0,7.0,91,0.00,,---,0.03,VWS V14.00,2013-02-09 04:39:00,
2013-02-08 23:44:00,27.0,24.7,29.75,NNW,347,1.0,7.0,91,0.00,,---,0.03,VWS V14.00,2013-02-09 04:44:00,
2013-02-08 23:49:00,27.0,24.7,29.75,NNW,347,0.0,7.0,91,0.00,,---,0.03,VWS V14.00,2013-02-09 04:49:00,
2013-02-08 23:54:00,27.0,25.0,29.76,North,351,2.0,8.0,92,0.00,,---,0.03,VWS V14.00,2013-02-09 04:54:00,
2013-02-08 23:59:00,27.0,25.0,29.76,NNW,338,2.0,6.0,92,0.00,,---,0.00,VWS V14.00,2013-02-09 04:59:00,